Time;durP1;ratioP1;P1;durP2;ratioP2;P2;SDS_P1;SDS_P2;PMS_P1;PMS_P2;Temp;Humidity;BMP_temperature;BMP_pressure;BME280_temperature;BME280_humidity;BME280_pressure;Samples;Min_cycle;Max_cycle;Signal;HPM_P1;HPM_P2
2022/11/01 00:01:42;;;;;;;0.20;0.20;;;;;;;;;;4967470;28;20524;-83
2022/11/01 00:04:08;;;;;;;0.20;0.20;;;;;;;;;;4967883;28;20421;-83
2022/11/01 00:06:35;;;;;;;0.10;0.10;;;;;;;;;;4950934;29;20422;-85
2022/11/01 00:09:01;;;;;;;1.17;0.68;;;;;;;;;;4951161;28;20418;-83
2022/11/01 00:11:27;;;;;;;3.90;1.38;;;;;;;;;;4966843;28;20906;-83
2022/11/01 00:13:53;;;;;;;0.50;0.50;;;;;;;;;;4967735;28;20421;-82
2022/11/01 00:16:20;;;;;;;0.10;0.10;;;;;;;;;;4966702;28;20418;-86
2022/11/01 00:18:46;;;;;;;0.22;0.22;;;;;;;;;;4965229;28;20418;-84
2022/11/01 00:21:13;;;;;;;0.85;0.85;;;;;;;;;;4966427;28;20497;-82
2022/11/01 00:23:39;;;;;;;0.38;0.38;;;;;;;;;;4965911;28;20421;-82
2022/11/01 00:26:06;;;;;;;0.20;0.20;;;;;;;;;;4967025;28;20421;-82
2022/11/01 00:28:32;;;;;;;1.27;1.17;;;;;;;;;;4967004;28;20421;-82
2022/11/01 00:30:58;;;;;;;0.60;0.60;;;;;;;;;;4951490;29;20929;-83
2022/11/01 00:33:25;;;;;;;0.10;0.10;;;;;;;;;;4966771;28;20417;-82
2022/11/01 00:35:51;;;;;;;0.10;0.10;;;;;;;;;;4968016;28;20433;-84
2022/11/01 00:38:18;;;;;;;0.10;0.10;;;;;;;;;;4967778;28;20457;-83
2022/11/01 00:40:44;;;;;;;0.20;0.20;;;;;;;;;;4951349;29;20798;-82
2022/11/01 00:43:11;;;;;;;0.30;0.30;;;;;;;;;;4967562;28;20510;-83
2022/11/01 00:45:37;;;;;;;0.10;0.10;;;;;;;;;;4967502;28;20501;-83
2022/11/01 00:48:03;;;;;;;0.50;0.50;;;;;;;;;;4967605;28;20462;-83
2022/11/01 00:50:29;;;;;;;0.10;0.10;;;;;;;;;;4951483;29;20430;-82
2022/11/01 00:52:55;;;;;;;0.30;0.30;;;;;;;;;;4967318;28;20413;-82
2022/11/01 00:55:21;;;;;;;2.00;1.10;;;;;;;;;;4951175;29;20548;-83
2022/11/01 00:57:47;;;;;;;0.10;0.10;;;;;;;;;;4967865;28;20450;-83
2022/11/01 01:00:14;;;;;;;1.60;1.20;;;;;;;;;;4953007;28;20421;-84
2022/11/01 01:02:40;;;;;;;1.02;0.95;;;;;;;;;;4966380;28;20422;-83
2022/11/01 01:05:07;;;;;;;2.20;0.70;;;;;;;;;;4950917;29;20921;-83
2022/11/01 01:07:33;;;;;;;1.10;1.10;;;;;;;;;;4951540;28;20451;-83
2022/11/01 01:09:59;;;;;;;0.20;0.20;;;;;;;;;;4967286;28;20433;-83
2022/11/01 01:12:25;;;;;;;0.20;0.17;;;;;;;;;;4950188;29;20528;-82
2022/11/01 01:14:51;;;;;;;0.50;0.50;;;;;;;;;;4951351;28;20925;-83
2022/11/01 01:17:18;;;;;;;0.30;0.30;;;;;;;;;;4950775;29;21067;-83
2022/11/01 01:19:44;;;;;;;1.90;0.70;;;;;;;;;;4965886;28;20469;-83
2022/11/01 01:22:10;;;;;;;0.40;0.30;;;;;;;;;;4949891;29;20409;-83
2022/11/01 01:24:36;;;;;;;0.50;0.50;;;;;;;;;;4950017;29;20915;-82
2022/11/01 01:27:02;;;;;;;0.80;0.60;;;;;;;;;;4966507;28;20416;-83
2022/11/01 01:29:28;;;;;;;0.88;0.55;;;;;;;;;;4950933;29;20417;-83
2022/11/01 01:31:54;;;;;;;0.20;0.20;;;;;;;;;;4967136;28;20769;-83
2022/11/01 01:34:20;;;;;;;0.20;0.20;;;;;;;;;;4950351;29;20447;-83
2022/11/01 01:36:47;;;;;;;0.10;0.10;;;;;;;;;;4950547;28;20473;-83
2022/11/01 01:39:13;;;;;;;0.40;0.40;;;;;;;;;;4950684;28;20797;-83
2022/11/01 01:41:57;;;;;;;0.80;0.30;;;;;;;;;;4966214;28;20441;-83
2022/11/01 01:45:00;;;;;;;1.40;0.70;;;;;;;;;;4965839;28;20413;-83
2022/11/01 01:47:46;;;;;;;0.10;0.10;;;;;;;;;;4949895;29;20643;-82
2022/11/01 01:50:18;;;;;;;0.70;0.70;;;;;;;;;;4949282;29;20529;-83
2022/11/01 01:52:53;;;;;;;0.35;0.20;;;;;;;;;;4949408;29;20480;-82
2022/11/01 01:55:22;;;;;;;0.20;0.20;;;;;;;;;;4948971;29;20868;-82
2022/11/01 01:57:48;;;;;;;0.50;0.35;;;;;;;;;;4947702;29;20426;-83
2022/11/01 02:00:14;;;;;;;0.60;0.60;;;;;;;;;;4948540;29;20432;-83
2022/11/01 02:02:41;;;;;;;0.20;0.20;;;;;;;;;;4965295;28;20424;-84
2022/11/01 02:05:27;;;;;;;0.50;0.50;;;;;;;;;;4964700;28;20422;-83
2022/11/01 02:07:54;;;;;;;1.20;0.50;;;;;;;;;;4948335;29;20414;-83
2022/11/01 02:10:21;;;;;;;1.00;1.00;;;;;;;;;;4949536;29;20488;-82
2022/11/01 02:12:48;;;;;;;0.20;0.20;;;;;;;;;;4966247;28;20436;-84
2022/11/01 02:15:15;;;;;;;0.50;0.50;;;;;;;;;;4949784;29;20773;-83
2022/11/01 02:17:50;;;;;;;0.20;0.20;;;;;;;;;;4964761;28;20473;-83
2022/11/01 02:20:34;;;;;;;0.30;0.30;;;;;;;;;;4965980;28;20422;-83
2022/11/01 02:23:03;;;;;;;1.38;0.90;;;;;;;;;;4965293;28;20987;-83
2022/11/01 02:25:41;;;;;;;0.10;0.10;;;;;;;;;;4950204;29;20426;-83
2022/11/01 02:28:19;;;;;;;0.10;0.10;;;;;;;;;;4966064;28;20739;-83
2022/11/01 02:30:53;;;;;;;0.40;0.40;;;;;;;;;;4948866;29;20511;-83
2022/11/01 02:33:33;;;;;;;0.10;0.10;;;;;;;;;;4967096;28;20910;-83
2022/11/01 02:36:04;;;;;;;0.30;0.30;;;;;;;;;;4969359;28;20897;-83
2022/11/01 02:38:39;;;;;;;0.30;0.30;;;;;;;;;;4969117;28;20414;-83
2022/11/01 02:41:20;;;;;;;0.15;0.15;;;;;;;;;;4969584;28;20476;-83
2022/11/01 02:43:54;;;;;;;0.40;0.40;;;;;;;;;;4968830;28;20422;-83
2022/11/01 02:49:06;;;;;;;0.10;0.10;;;;;;;;;;4969040;28;20421;-83
2022/11/01 02:51:33;;;;;;;0.20;0.20;;;;;;;;;;4954246;28;20959;-83
2022/11/01 02:54:06;;;;;;;0.10;0.10;;;;;;;;;;4968415;28;20817;-82
2022/11/01 02:56:32;;;;;;;0.28;0.28;;;;;;;;;;4969103;28;20559;-83
2022/11/01 02:58:59;;;;;;;0.40;0.40;;;;;;;;;;4952529;29;20897;-83
2022/11/01 03:01:27;;;;;;;0.10;0.10;;;;;;;;;;4952519;29;20414;-83
2022/11/01 03:03:55;;;;;;;0.50;0.50;;;;;;;;;;4951818;29;20410;-84
2022/11/01 03:06:29;;;;;;;0.10;0.10;;;;;;;;;;4953093;29;20418;-83
2022/11/01 03:09:01;;;;;;;0.10;0.10;;;;;;;;;;4952737;29;20549;-83
2022/11/01 03:11:32;;;;;;;0.10;0.10;;;;;;;;;;4968656;28;20456;-83
2022/11/01 03:13:59;;;;;;;0.10;0.10;;;;;;;;;;4952620;29;20911;-83
2022/11/01 03:16:32;;;;;;;0.28;0.28;;;;;;;;;;4953506;29;20434;-83
2022/11/01 03:19:16;;;;;;;0.10;0.10;;;;;;;;;;4953599;29;20422;-83
2022/11/01 03:21:56;;;;;;;0.30;0.30;;;;;;;;;;4953906;29;21095;-83
2022/11/01 03:24:28;;;;;;;0.20;0.20;;;;;;;;;;4954067;29;20461;-83
2022/11/01 03:27:14;;;;;;;0.20;0.20;;;;;;;;;;4968486;28;20429;-82
2022/11/01 03:29:42;;;;;;;0.40;0.40;;;;;;;;;;4935411;29;20413;-81
2022/11/01 03:32:09;;;;;;;0.68;0.63;;;;;;;;;;4953572;29;20416;-83
2022/11/01 03:34:36;;;;;;;0.30;0.30;;;;;;;;;;4968171;28;20480;-83
2022/11/01 03:37:04;;;;;;;0.60;0.60;;;;;;;;;;4967889;28;20420;-83
2022/11/01 03:39:35;;;;;;;0.40;0.30;;;;;;;;;;4968840;28;20935;-83
2022/11/01 03:42:03;;;;;;;0.30;0.30;;;;;;;;;;4968046;28;20861;-83
2022/11/01 03:44:34;;;;;;;0.80;0.80;;;;;;;;;;4951928;28;20421;-83
2022/11/01 03:47:00;;;;;;;0.10;0.10;;;;;;;;;;4949214;28;20972;-83
2022/11/01 03:49:26;;;;;;;1.40;0.73;;;;;;;;;;4952176;29;20429;-82
2022/11/01 03:51:52;;;;;;;0.40;0.40;;;;;;;;;;4950687;29;20596;-82
2022/11/01 03:54:18;;;;;;;0.35;0.35;;;;;;;;;;4967231;28;20438;-82
2022/11/01 03:56:44;;;;;;;0.10;0.10;;;;;;;;;;4966326;28;20421;-83
2022/11/01 03:59:10;;;;;;;0.10;0.10;;;;;;;;;;4951083;29;20417;-83
2022/11/01 04:01:37;;;;;;;0.10;0.10;;;;;;;;;;4950513;29;20802;-83
2022/11/01 04:04:03;;;;;;;0.30;0.30;;;;;;;;;;4951199;29;20480;-84
2022/11/01 04:06:29;;;;;;;0.10;0.10;;;;;;;;;;4951490;28;20826;-83
2022/11/01 04:08:55;;;;;;;0.10;0.10;;;;;;;;;;4950765;29;20897;-82
2022/11/01 04:11:21;;;;;;;0.50;0.50;;;;;;;;;;4951538;28;20446;-83
2022/11/01 04:13:47;;;;;;;0.20;0.20;;;;;;;;;;4951758;29;20493;-84
2022/11/01 04:21:44;;;;;;;0.80;0.40;;;;;;;;;;4967679;28;21526;-82
2022/11/01 04:24:10;;;;;;;0.55;0.55;;;;;;;;;;4950908;29;20702;-83
2022/11/01 04:26:37;;;;;;;0.15;0.15;;;;;;;;;;4967514;28;20845;-83
2022/11/01 04:29:03;;;;;;;0.38;0.38;;;;;;;;;;4950822;28;20432;-83
2022/11/01 04:31:30;;;;;;;0.17;0.17;;;;;;;;;;4951397;29;20480;-83
2022/11/01 04:33:57;;;;;;;0.13;0.13;;;;;;;;;;4950438;29;20418;-83
2022/11/01 04:36:23;;;;;;;0.10;0.10;;;;;;;;;;4951171;28;20453;-83
2022/11/01 04:38:50;;;;;;;0.10;0.10;;;;;;;;;;4965175;28;20830;-83
2022/11/01 04:41:21;;;;;;;0.00;0.00;;;;;;;;;;4967156;28;20821;-83
2022/11/01 04:43:47;;;;;;;0.20;0.20;;;;;;;;;;4966860;28;20488;-82
2022/11/01 04:46:14;;;;;;;0.10;0.10;;;;;;;;;;4950959;28;20422;-83
2022/11/01 04:48:40;;;;;;;0.60;0.60;;;;;;;;;;4951981;28;20897;-83
2022/11/01 04:51:06;;;;;;;0.40;0.40;;;;;;;;;;4951372;29;20525;-83
2022/11/01 04:53:32;;;;;;;0.40;0.40;;;;;;;;;;4951067;29;20766;-83
2022/11/01 04:55:58;;;;;;;0.10;0.10;;;;;;;;;;4949443;28;20418;-83
2022/11/01 04:58:24;;;;;;;0.05;0.05;;;;;;;;;;4950587;29;20441;-83
2022/11/01 05:00:50;;;;;;;0.40;0.40;;;;;;;;;;4950197;28;20430;-83
2022/11/01 05:03:16;;;;;;;0.08;0.08;;;;;;;;;;4950097;29;20905;-83
2022/11/01 05:05:42;;;;;;;0.10;0.10;;;;;;;;;;4951355;28;20749;-83
2022/11/01 05:08:09;;;;;;;0.10;0.10;;;;;;;;;;4950277;29;20499;-83
2022/11/01 05:10:37;;;;;;;0.43;0.43;;;;;;;;;;4965736;28;20913;-83
2022/11/01 05:13:04;;;;;;;0.10;0.10;;;;;;;;;;4966665;28;20418;-82
2022/11/01 05:15:30;;;;;;;0.10;0.10;;;;;;;;;;4967565;28;20496;-84
2022/11/01 05:17:56;;;;;;;0.10;0.10;;;;;;;;;;4966558;28;20461;-83
2022/11/01 05:20:22;;;;;;;0.10;0.10;;;;;;;;;;4964695;28;20441;-85
2022/11/01 05:22:49;;;;;;;0.10;0.10;;;;;;;;;;4949642;28;20426;-89
2022/11/01 05:25:16;;;;;;;0.10;0.10;;;;;;;;;;4949838;29;20414;-88
2022/11/01 05:27:42;;;;;;;0.10;0.10;;;;;;;;;;4950174;28;20839;-92
2022/11/01 05:30:09;;;;;;;0.10;0.10;;;;;;;;;;4949750;29;20460;-87
2022/11/01 05:32:36;;;;;;;0.00;0.00;;;;;;;;;;4967677;28;20418;-85
2022/11/01 05:35:03;;;;;;;0.05;0.05;;;;;;;;;;4950551;29;20449;-87
2022/11/01 05:37:29;;;;;;;0.10;0.10;;;;;;;;;;4966563;28;20456;-86
2022/11/01 05:39:55;;;;;;;0.10;0.10;;;;;;;;;;4967332;28;20417;-88
2022/11/01 05:42:21;;;;;;;0.10;0.10;;;;;;;;;;4967012;28;21061;-92
2022/11/01 05:44:47;;;;;;;0.10;0.10;;;;;;;;;;4952349;29;20418;-90
2022/11/01 05:47:13;;;;;;;0.10;0.10;;;;;;;;;;4950923;28;20529;-89
2022/11/01 05:49:40;;;;;;;0.10;0.10;;;;;;;;;;4951053;28;20429;-90
2022/11/01 05:52:06;;;;;;;0.10;0.10;;;;;;;;;;4950335;28;20413;-88
2022/11/01 05:54:32;;;;;;;0.10;0.10;;;;;;;;;;4950861;29;20413;-86
2022/11/01 05:56:58;;;;;;;0.50;0.40;;;;;;;;;;4950136;29;20453;-87
2022/11/01 05:59:24;;;;;;;0.10;0.10;;;;;;;;;;4950727;29;20463;-88
2022/11/01 06:01:50;;;;;;;0.03;0.03;;;;;;;;;;4951549;28;20413;-88
2022/11/01 06:04:16;;;;;;;0.00;0.00;;;;;;;;;;4952145;29;20578;-89
2022/11/01 06:06:42;;;;;;;0.00;0.00;;;;;;;;;;4951952;28;20417;-87
2022/11/01 06:09:08;;;;;;;0.00;0.00;;;;;;;;;;4953627;28;20469;-87
2022/11/01 06:11:34;;;;;;;0.00;0.00;;;;;;;;;;4954202;29;20895;-88
2022/11/01 06:14:00;;;;;;;0.30;0.30;;;;;;;;;;4970575;28;20904;-88
2022/11/01 06:16:26;;;;;;;2.20;0.60;;;;;;;;;;4954329;28;20943;-89
2022/11/01 06:18:53;;;;;;;0.30;0.30;;;;;;;;;;4953921;29;20477;-89
2022/11/01 06:21:21;;;;;;;0.20;0.20;;;;;;;;;;4954299;28;20433;-87
2022/11/01 06:23:49;;;;;;;0.10;0.10;;;;;;;;;;4969904;28;21011;-89
2022/11/01 06:26:15;;;;;;;0.10;0.10;;;;;;;;;;4970031;28;20424;-87
2022/11/01 06:28:41;;;;;;;0.10;0.10;;;;;;;;;;4970454;28;20463;-86
2022/11/01 06:31:07;;;;;;;0.00;0.00;;;;;;;;;;4954165;29;20785;-85
2022/11/01 06:33:34;;;;;;;0.00;0.00;;;;;;;;;;4969343;28;20920;-87
2022/11/01 06:36:00;;;;;;;0.00;0.00;;;;;;;;;;4954492;28;20449;-88
2022/11/01 06:38:26;;;;;;;0.10;0.10;;;;;;;;;;4953525;29;20422;-89
2022/11/01 06:40:53;;;;;;;0.10;0.10;;;;;;;;;;4955601;28;20589;-88
2022/11/01 06:43:19;;;;;;;0.10;0.10;;;;;;;;;;4968703;28;20468;-88
2022/11/01 06:45:45;;;;;;;0.05;0.05;;;;;;;;;;4954164;28;20660;-86
2022/11/01 06:48:11;;;;;;;0.00;0.00;;;;;;;;;;4969520;28;20804;-86
2022/11/01 06:50:37;;;;;;;0.10;0.10;;;;;;;;;;4954959;29;20614;-88
2022/11/01 06:53:03;;;;;;;0.10;0.10;;;;;;;;;;4954862;28;20421;-86
2022/11/01 06:55:29;;;;;;;0.10;0.10;;;;;;;;;;4970282;28;20781;-88
2022/11/01 06:57:56;;;;;;;0.10;0.10;;;;;;;;;;4971146;28;20479;-87
2022/11/01 07:00:23;;;;;;;0.10;0.10;;;;;;;;;;4970677;28;20425;-87
2022/11/01 07:02:49;;;;;;;0.10;0.10;;;;;;;;;;4971032;28;20424;-88
2022/11/01 07:05:15;;;;;;;0.10;0.10;;;;;;;;;;4954862;29;20433;-87
2022/11/01 07:07:41;;;;;;;0.00;0.00;;;;;;;;;;4954998;29;20760;-86
2022/11/01 07:10:07;;;;;;;0.10;0.10;;;;;;;;;;4955009;29;20507;-86
2022/11/01 07:12:34;;;;;;;0.10;0.10;;;;;;;;;;4954906;29;20449;-87
2022/11/01 07:15:00;;;;;;;0.10;0.10;;;;;;;;;;4970893;28;20410;-88
2022/11/01 07:17:26;;;;;;;0.70;0.70;;;;;;;;;;4954487;28;20441;-89
2022/11/01 07:19:52;;;;;;;4.22;1.00;;;;;;;;;;4975096;28;20445;-86
2022/11/01 07:22:18;;;;;;;0.10;0.10;;;;;;;;;;4954045;29;20426;-85
2022/11/01 07:24:44;;;;;;;0.10;0.10;;;;;;;;;;4953676;29;20437;-89
2022/11/01 07:27:10;;;;;;;0.20;0.20;;;;;;;;;;4954799;29;20550;-86
2022/11/01 07:29:39;;;;;;;0.08;0.08;;;;;;;;;;4954454;29;20422;-87
2022/11/01 07:32:05;;;;;;;0.40;0.40;;;;;;;;;;4954118;29;20441;-88
2022/11/01 07:34:31;;;;;;;0.32;0.25;;;;;;;;;;4954271;28;20421;-87
2022/11/01 07:36:57;;;;;;;0.10;0.10;;;;;;;;;;4954258;28;20541;-88
2022/11/01 07:39:23;;;;;;;0.10;0.10;;;;;;;;;;4953853;28;20436;-86
2022/11/01 07:41:51;;;;;;;0.10;0.10;;;;;;;;;;4954682;28;20433;-89
2022/11/01 07:44:17;;;;;;;0.10;0.10;;;;;;;;;;4969870;28;20428;-87
2022/11/01 07:46:43;;;;;;;0.60;0.60;;;;;;;;;;4970101;28;20421;-89
2022/11/01 07:49:09;;;;;;;0.10;0.10;;;;;;;;;;4954333;29;20434;-87
2022/11/01 07:51:35;;;;;;;0.00;0.00;;;;;;;;;;4953807;29;20444;-86
2022/11/01 07:54:01;;;;;;;0.03;0.03;;;;;;;;;;4953883;28;20849;-87
2022/11/01 07:56:28;;;;;;;0.10;0.10;;;;;;;;;;4953308;28;20972;-87
2022/11/01 07:58:54;;;;;;;0.90;0.60;;;;;;;;;;4954032;28;20426;-87
2022/11/01 08:01:20;;;;;;;0.20;0.20;;;;;;;;;;4953301;29;20430;-87
2022/11/01 08:03:48;;;;;;;0.10;0.10;;;;;;;;;;4969930;28;20840;-86
2022/11/01 08:06:14;;;;;;;4.50;0.90;;;;;;;;;;4954310;28;20426;-87
2022/11/01 08:08:40;;;;;;;0.10;0.10;;;;;;;;;;4953588;28;20422;-85
2022/11/01 08:11:06;;;;;;;0.05;0.05;;;;;;;;;;4953832;28;20793;-86
2022/11/01 08:13:32;;;;;;;0.10;0.10;;;;;;;;;;4968915;28;20417;-87
2022/11/01 08:16:00;;;;;;;0.20;0.20;;;;;;;;;;4953769;28;20410;-87
2022/11/01 08:18:26;;;;;;;0.60;0.60;;;;;;;;;;4952960;29;20409;-87
2022/11/01 08:20:52;;;;;;;0.00;0.00;;;;;;;;;;4953311;28;20426;-86
2022/11/01 08:23:18;;;;;;;0.00;0.00;;;;;;;;;;4969279;28;20414;-89
2022/11/01 08:25:44;;;;;;;0.30;0.30;;;;;;;;;;4952885;29;20461;-86
2022/11/01 08:28:12;;;;;;;3.20;0.50;;;;;;;;;;4953257;29;20414;-85
2022/11/01 08:30:38;;;;;;;0.20;0.20;;;;;;;;;;4952835;28;20487;-87
2022/11/01 08:33:04;;;;;;;0.10;0.10;;;;;;;;;;4968940;28;20413;-85
2022/11/01 08:35:31;;;;;;;0.10;0.10;;;;;;;;;;4968653;28;20500;-86
2022/11/01 08:37:58;;;;;;;0.30;0.30;;;;;;;;;;4953056;28;20505;-86
2022/11/01 08:40:24;;;;;;;0.40;0.40;;;;;;;;;;4952392;29;20429;-88
2022/11/01 08:42:50;;;;;;;0.30;0.30;;;;;;;;;;4968824;28;20461;-86
2022/11/01 08:45:17;;;;;;;0.10;0.10;;;;;;;;;;4952441;29;20422;-87
2022/11/01 08:47:43;;;;;;;0.40;0.40;;;;;;;;;;4952257;28;20783;-87
2022/11/01 08:50:10;;;;;;;0.00;0.00;;;;;;;;;;4969074;28;20465;-89
2022/11/01 08:52:36;;;;;;;0.30;0.30;;;;;;;;;;4967966;28;20418;-87
2022/11/01 08:55:03;;;;;;;0.20;0.20;;;;;;;;;;4953040;29;20769;-88
2022/11/01 08:57:29;;;;;;;0.30;0.30;;;;;;;;;;4952009;29;20504;-89
2022/11/01 08:59:55;;;;;;;0.10;0.10;;;;;;;;;;4968795;28;20480;-89
2022/11/01 09:02:21;;;;;;;0.10;0.10;;;;;;;;;;4953579;29;20489;-90
2022/11/01 09:04:47;;;;;;;0.10;0.10;;;;;;;;;;4953396;29;20949;-88
2022/11/01 09:07:13;;;;;;;0.00;0.00;;;;;;;;;;4971265;28;20409;-88
2022/11/01 09:09:39;;;;;;;0.20;0.20;;;;;;;;;;4957727;28;20428;-88
2022/11/01 09:12:06;;;;;;;0.20;0.20;;;;;;;;;;4986766;28;20446;-88
2022/11/01 09:14:32;;;;;;;0.10;0.10;;;;;;;;;;4984076;28;20414;-87
2022/11/01 09:16:58;;;;;;;1.60;0.60;;;;;;;;;;4968890;28;20425;-89
2022/11/01 09:19:24;;;;;;;0.60;0.40;;;;;;;;;;4982800;28;20424;-87
2022/11/01 09:21:50;;;;;;;0.40;0.40;;;;;;;;;;4962673;29;20421;-88
2022/11/01 09:24:17;;;;;;;0.10;0.10;;;;;;;;;;4977793;28;20413;-86
2022/11/01 09:26:43;;;;;;;1.45;0.60;;;;;;;;;;4982992;28;20437;-86
2022/11/01 09:29:10;;;;;;;0.10;0.10;;;;;;;;;;4989822;28;20401;-85
2022/11/01 09:31:36;;;;;;;0.40;0.40;;;;;;;;;;4988570;28;20484;-85
2022/11/01 09:34:02;;;;;;;0.25;0.25;;;;;;;;;;4989909;28;20409;-87
2022/11/01 09:36:29;;;;;;;0.10;0.10;;;;;;;;;;4973885;29;20425;-84
2022/11/01 09:38:56;;;;;;;0.00;0.00;;;;;;;;;;4972181;29;20426;-88
2022/11/01 09:41:31;;;;;;;0.30;0.30;;;;;;;;;;4952690;29;20444;-88
2022/11/01 09:43:58;;;;;;;2.10;1.10;;;;;;;;;;4971581;28;20425;-92
2022/11/01 09:46:27;;;;;;;1.40;0.80;;;;;;;;;;4956386;29;20484;-90
2022/11/01 09:48:53;;;;;;;0.00;0.00;;;;;;;;;;4971564;28;20416;-87
2022/11/01 09:51:21;;;;;;;0.20;0.20;;;;;;;;;;4955824;29;20445;-91
2022/11/01 09:53:49;;;;;;;0.10;0.10;;;;;;;;;;4955771;29;20450;-88
2022/11/01 09:56:25;;;;;;;0.10;0.10;;;;;;;;;;4955412;29;20480;-92
2022/11/01 09:59:01;;;;;;;0.52;0.40;;;;;;;;;;4971933;28;20417;-90
2022/11/01 10:01:40;;;;;;;0.10;0.10;;;;;;;;;;4956443;28;20526;-89
2022/11/01 10:04:24;;;;;;;0.20;0.20;;;;;;;;;;4971634;28;20429;-90
2022/11/01 10:07:13;;;;;;;3.30;0.50;;;;;;;;;;4954966;29;20652;-92
2022/11/01 10:09:50;;;;;;;0.10;0.10;;;;;;;;;;4955988;29;20418;-88
2022/11/01 10:12:16;;;;;;;0.10;0.10;;;;;;;;;;4971434;28;20432;-91
2022/11/01 10:14:54;;;;;;;0.10;0.10;;;;;;;;;;4955359;29;20481;-91
2022/11/01 10:17:31;;;;;;;0.10;0.10;;;;;;;;;;4955928;29;20418;-89
2022/11/01 10:19:57;;;;;;;0.60;0.50;;;;;;;;;;4973099;28;20414;-92
2022/11/01 10:22:28;;;;;;;0.40;0.40;;;;;;;;;;4955768;29;20455;-88
2022/11/01 10:24:59;;;;;;;0.90;0.43;;;;;;;;;;4957337;28;20428;-91
2022/11/01 10:27:30;;;;;;;0.10;0.10;;;;;;;;;;4955943;29;20422;-91
2022/11/01 10:30:02;;;;;;;3.50;0.80;;;;;;;;;;4971048;28;20410;-88
2022/11/01 10:32:32;;;;;;;0.10;0.10;;;;;;;;;;4971205;28;20422;-83
2022/11/01 10:35:01;;;;;;;0.30;0.30;;;;;;;;;;4969873;28;20484;-86
2022/11/01 10:37:31;;;;;;;0.30;0.30;;;;;;;;;;4970650;28;20464;-85
2022/11/01 10:40:00;;;;;;;0.10;0.10;;;;;;;;;;4969932;28;20418;-85
2022/11/01 10:42:28;;;;;;;0.50;0.50;;;;;;;;;;4970404;28;20417;-91
2022/11/01 10:45:03;;;;;;;0.10;0.10;;;;;;;;;;4969649;28;20428;-85
2022/11/01 10:47:29;;;;;;;0.50;0.50;;;;;;;;;;4970824;28;20512;-88
2022/11/01 10:49:55;;;;;;;0.10;0.10;;;;;;;;;;4970273;28;20462;-85
2022/11/01 10:52:24;;;;;;;0.10;0.10;;;;;;;;;;4954210;29;21037;-86
2022/11/01 10:54:51;;;;;;;0.10;0.10;;;;;;;;;;4969808;28;20441;-87
2022/11/01 10:57:23;;;;;;;0.70;0.40;;;;;;;;;;4954233;29;20410;-88
2022/11/01 10:59:49;;;;;;;0.10;0.10;;;;;;;;;;4954168;29;20423;-87
2022/11/01 11:02:15;;;;;;;0.10;0.10;;;;;;;;;;4954752;29;20413;-90
2022/11/01 11:04:41;;;;;;;0.10;0.10;;;;;;;;;;4953908;29;20735;-88
2022/11/01 11:07:15;;;;;;;0.10;0.10;;;;;;;;;;4954436;28;20402;-91
2022/11/01 11:09:41;;;;;;;0.20;0.20;;;;;;;;;;4970050;28;20426;-90
2022/11/01 11:12:15;;;;;;;4.00;1.70;;;;;;;;;;4954298;28;20437;-88
2022/11/01 11:14:42;;;;;;;2.80;0.30;;;;;;;;;;4954179;29;20429;-91
2022/11/01 11:17:20;;;;;;;0.45;0.25;;;;;;;;;;4954353;28;20510;-90
2022/11/01 11:19:47;;;;;;;0.10;0.10;;;;;;;;;;4955006;28;20398;-90
2022/11/01 11:22:13;;;;;;;0.10;0.10;;;;;;;;;;4970243;28;20418;-90
2022/11/01 11:24:43;;;;;;;0.00;0.00;;;;;;;;;;4953876;28;20424;-87
2022/11/01 11:27:15;;;;;;;0.10;0.10;;;;;;;;;;4954346;29;20460;-92
2022/11/01 11:29:52;;;;;;;0.20;0.20;;;;;;;;;;4953949;29;20890;-90
2022/11/01 11:32:20;;;;;;;0.10;0.10;;;;;;;;;;4970479;28;20461;-91
2022/11/01 11:34:53;;;;;;;0.10;0.10;;;;;;;;;;4953677;28;20766;-90
2022/11/01 11:37:21;;;;;;;0.10;0.10;;;;;;;;;;4954093;28;20426;-91
2022/11/01 11:40:06;;;;;;;0.10;0.10;;;;;;;;;;4954647;28;20832;-91
2022/11/01 11:42:32;;;;;;;2.60;1.10;;;;;;;;;;4954271;29;20421;-90
2022/11/01 11:45:10;;;;;;;0.30;0.30;;;;;;;;;;4953218;29;20481;-88
2022/11/01 11:47:37;;;;;;;0.10;0.10;;;;;;;;;;4953908;29;20426;-91
2022/11/01 11:50:18;;;;;;;0.10;0.10;;;;;;;;;;4953575;29;20765;-90
2022/11/01 11:52:46;;;;;;;0.10;0.10;;;;;;;;;;4953148;29;20425;-89
2022/11/01 11:55:50;;;;;;;0.10;0.10;;;;;;;;;;4969311;28;20828;-89
2022/11/01 11:58:22;;;;;;;0.20;0.20;;;;;;;;;;4939479;28;20456;-89
2022/11/01 12:00:51;;;;;;;0.10;0.10;;;;;;;;;;4954697;28;20420;-86
2022/11/01 12:03:17;;;;;;;1.10;0.70;;;;;;;;;;4952506;28;20497;-88
2022/11/01 12:05:54;;;;;;;0.25;0.25;;;;;;;;;;4952400;28;20493;-86
2022/11/01 12:08:33;;;;;;;0.10;0.10;;;;;;;;;;4953477;28;20424;-89
2022/11/01 12:10:59;;;;;;;0.10;0.10;;;;;;;;;;4952558;29;20763;-89
2022/11/01 12:13:28;;;;;;;1.00;1.00;;;;;;;;;;4952870;28;20426;-89
2022/11/01 12:16:06;;;;;;;0.10;0.10;;;;;;;;;;4968871;28;20417;-89
2022/11/01 12:18:33;;;;;;;0.10;0.10;;;;;;;;;;4953250;29;20769;-88
2022/11/01 12:20:59;;;;;;;0.10;0.10;;;;;;;;;;4953148;29;20426;-92
2022/11/01 12:23:31;;;;;;;0.10;0.10;;;;;;;;;;4953892;28;20433;-92
2022/11/01 12:25:59;;;;;;;0.00;0.00;;;;;;;;;;4968750;28;20426;-93
2022/11/01 12:28:30;;;;;;;0.10;0.10;;;;;;;;;;4953625;29;20418;-91
2022/11/01 12:30:58;;;;;;;0.90;0.70;;;;;;;;;;4968855;28;20445;-93
2022/11/01 12:33:28;;;;;;;0.10;0.10;;;;;;;;;;4969659;28;20422;-92
2022/11/01 12:35:54;;;;;;;0.10;0.10;;;;;;;;;;4952841;29;20461;-91
2022/11/01 12:38:37;;;;;;;0.20;0.20;;;;;;;;;;4969049;28;20906;-90
2022/11/01 12:41:22;;;;;;;0.10;0.10;;;;;;;;;;4952278;29;20421;-91
2022/11/01 12:43:54;;;;;;;0.20;0.20;;;;;;;;;;4952308;29;20425;-89
2022/11/01 12:46:44;;;;;;;0.10;0.10;;;;;;;;;;4952465;29;20806;-87
2022/11/01 12:49:23;;;;;;;0.20;0.20;;;;;;;;;;4952308;29;20449;-88
2022/11/01 12:51:52;;;;;;;4.30;1.60;;;;;;;;;;4951538;29;20524;-91
2022/11/01 12:54:20;;;;;;;0.10;0.10;;;;;;;;;;4951997;29;20533;-87
2022/11/01 12:56:46;;;;;;;0.10;0.10;;;;;;;;;;4952026;28;20462;-87
2022/11/01 12:59:15;;;;;;;0.10;0.10;;;;;;;;;;4952286;29;20417;-88
2022/11/01 13:01:47;;;;;;;0.10;0.10;;;;;;;;;;4952271;28;20974;-86
2022/11/01 13:04:16;;;;;;;0.25;0.15;;;;;;;;;;4952561;29;20500;-84
2022/11/01 13:06:45;;;;;;;0.50;0.50;;;;;;;;;;4951973;29;20433;-86
2022/11/01 13:09:15;;;;;;;3.00;1.30;;;;;;;;;;4968116;28;20413;-85
2022/11/01 13:11:44;;;;;;;0.10;0.10;;;;;;;;;;4951350;29;20785;-86
2022/11/01 13:14:25;;;;;;;0.10;0.10;;;;;;;;;;4951770;29;20929;-85
2022/11/01 13:16:56;;;;;;;0.80;0.80;;;;;;;;;;4951001;28;20905;-87
2022/11/01 13:19:27;;;;;;;0.10;0.10;;;;;;;;;;4953269;29;20484;-84
2022/11/01 13:21:56;;;;;;;0.50;0.50;;;;;;;;;;4967590;28;20422;-85
2022/11/01 13:24:22;;;;;;;0.10;0.10;;;;;;;;;;4967889;28;20433;-84
2022/11/01 13:26:53;;;;;;;0.10;0.10;;;;;;;;;;4952075;29;20422;-86
2022/11/01 13:29:35;;;;;;;0.10;0.10;;;;;;;;;;4968201;28;20425;-85
2022/11/01 13:32:04;;;;;;;0.10;0.10;;;;;;;;;;4951177;29;20429;-85
2022/11/01 13:34:40;;;;;;;0.10;0.10;;;;;;;;;;4967755;28;20500;-89
2022/11/01 13:37:25;;;;;;;0.10;0.10;;;;;;;;;;4951390;29;20463;-83
2022/11/01 13:40:06;;;;;;;0.10;0.10;;;;;;;;;;4950668;29;20421;-85
2022/11/01 13:42:40;;;;;;;0.80;0.40;;;;;;;;;;4952522;29;20473;-87
2022/11/01 13:45:06;;;;;;;0.10;0.10;;;;;;;;;;4967334;28;20927;-85
2022/11/01 13:47:40;;;;;;;0.10;0.10;;;;;;;;;;4967865;28;20418;-89
2022/11/01 13:50:15;;;;;;;0.30;0.30;;;;;;;;;;4951511;29;20888;-81
2022/11/01 13:52:48;;;;;;;0.10;0.10;;;;;;;;;;4951746;29;20509;-89
2022/11/01 13:55:17;;;;;;;0.10;0.10;;;;;;;;;;4952762;28;20406;-88
2022/11/01 13:57:44;;;;;;;0.10;0.10;;;;;;;;;;4951584;29;20425;-85
2022/11/01 14:00:29;;;;;;;0.10;0.10;;;;;;;;;;4968013;28;20450;-86
2022/11/01 14:02:56;;;;;;;0.10;0.10;;;;;;;;;;4950967;29;20414;-86
2022/11/01 14:05:35;;;;;;;0.30;0.30;;;;;;;;;;4967716;28;20464;-86
2022/11/01 14:08:05;;;;;;;0.10;0.10;;;;;;;;;;4952198;28;20451;-85
2022/11/01 14:10:31;;;;;;;0.10;0.10;;;;;;;;;;4951555;29;20845;-85
2022/11/01 14:12:58;;;;;;;0.10;0.10;;;;;;;;;;4951467;29;20905;-85
2022/11/01 14:15:27;;;;;;;0.10;0.10;;;;;;;;;;4953860;29;20417;-89
2022/11/01 14:17:56;;;;;;;0.08;0.08;;;;;;;;;;4968883;28;20877;-92
2022/11/01 14:20:28;;;;;;;0.10;0.10;;;;;;;;;;4953776;29;20422;-91
2022/11/01 14:22:55;;;;;;;0.10;0.10;;;;;;;;;;4968124;28;20778;-91
2022/11/01 14:25:31;;;;;;;0.20;0.20;;;;;;;;;;4953060;29;20472;-91
2022/11/01 14:28:16;;;;;;;0.90;0.80;;;;;;;;;;4952950;28;20897;-91
2022/11/01 14:30:45;;;;;;;0.10;0.10;;;;;;;;;;4955378;29;20438;-92
2022/11/01 14:33:16;;;;;;;2.30;0.30;;;;;;;;;;4955559;28;20425;-89
2022/11/01 14:35:45;;;;;;;1.00;0.60;;;;;;;;;;4955496;29;20445;-86
2022/11/01 14:38:17;;;;;;;0.10;0.10;;;;;;;;;;4955084;28;20417;-92
2022/11/01 14:40:48;;;;;;;0.10;0.10;;;;;;;;;;4971818;28;20417;-92
2022/11/01 14:43:20;;;;;;;0.10;0.10;;;;;;;;;;4955900;29;20398;-91
2022/11/01 14:45:55;;;;;;;5.70;1.10;;;;;;;;;;4956377;29;20413;-89
2022/11/01 14:48:28;;;;;;;0.30;0.30;;;;;;;;;;4955384;29;20545;-91
2022/11/01 14:51:13;;;;;;;4.50;0.40;;;;;;;;;;4954543;29;20429;-86
2022/11/01 14:53:41;;;;;;;0.10;0.10;;;;;;;;;;4954555;29;20448;-89
2022/11/01 14:56:18;;;;;;;0.10;0.10;;;;;;;;;;4951981;29;20501;-89
2022/11/01 14:58:44;;;;;;;0.10;0.10;;;;;;;;;;4969229;28;20516;-91
2022/11/01 15:01:14;;;;;;;0.10;0.10;;;;;;;;;;4969869;28;20425;-91
2022/11/01 15:03:45;;;;;;;0.10;0.10;;;;;;;;;;4969927;28;20813;-86